createdAt,value
2023-05-04T00:02:28.769Z,76.89095386828079
2023-05-04T00:05:24.227Z,77.10167072541269
2023-05-04T00:08:19.830Z,77.06275009258468
2023-05-04T00:11:15.358Z,77.11351596570759
2023-05-04T00:14:10.940Z,77.93571796570552
2023-05-04T00:17:07.486Z,79.20932873715249
2023-05-04T00:20:05.301Z,77.87930639657318
2023-05-04T00:23:00.584Z,77.09369688170452
2023-05-04T00:25:58.145Z,78.92996163709603
2023-05-04T00:28:53.699Z,80.97632116562406
2023-05-04T00:31:50.264Z,81.34693481641027
2023-05-04T00:34:47.843Z,80.54934228109833
2023-05-04T00:37:45.408Z,79.06191947416794
2023-05-04T00:40:41.907Z,79.84633295587193
2023-05-04T00:43:37.495Z,80.07218204068847
2023-05-04T00:46:34.142Z,78.9688076621438
2023-05-04T00:49:31.635Z,78.27208099142302
2023-05-04T00:52:29.193Z,78.08505946372023
2023-05-04T00:55:26.741Z,79.79814240806867
2023-05-04T00:58:23.312Z,79.24620915485802
2023-05-04T01:01:18.951Z,79.23171450037636
2023-05-04T01:04:15.495Z,79.62338069429985
2023-05-04T01:07:20.981Z,79.85950935329772
2023-05-04T01:10:22.512Z,80.11544102054224
2023-05-04T01:13:25.023Z,80.35624958303849
2023-05-04T01:16:21.677Z,79.76961697258827
2023-05-04T01:19:17.169Z,79.87125655828059
2023-05-04T01:22:12.755Z,77.90555142266722
2023-05-04T01:25:09.315Z,78.2166342391046
2023-05-04T01:28:12.822Z,77.68078386728965
2023-05-04T01:31:13.410Z,77.91188405273938
2023-05-04T01:34:10.937Z,76.86231702554421
2023-05-04T01:37:08.545Z,76.29601779126115
2023-05-04T01:40:05.211Z,76.96296985753801
2023-05-04T01:43:00.623Z,76.65898432482264
2023-05-04T01:45:56.205Z,76.87616038697749
2023-05-04T01:48:51.713Z,75.9091371632265
2023-05-04T01:51:49.307Z,76.19405531313166
2023-05-04T01:54:44.841Z,75.60110369505972
2023-05-04T01:57:40.438Z,75.36446156077339
2023-05-04T02:00:35.987Z,75.0586610131114
2023-05-04T02:03:31.691Z,75.40358780871671
2023-05-04T02:06:27.107Z,74.93464073556285
2023-05-04T02:09:22.658Z,75.30002616036222
2023-05-04T02:12:18.225Z,75.37931512072794
2023-05-04T02:15:13.778Z,76.12739416997856
2023-05-04T02:18:09.433Z,75.82324230432421
2023-05-04T02:21:04.881Z,75.43651921676863
2023-05-04T02:24:01.466Z,75.22596324481121
2023-05-04T02:26:58.035Z,74.07025348083897
2023-05-04T02:29:53.569Z,73.86252525965786
2023-05-04T02:32:49.208Z,73.59228367263928
2023-05-04T02:35:44.742Z,73.4704567535807
2023-05-04T02:38:41.253Z,73.71499848498321
2023-05-04T02:41:36.780Z,71.77059125786737
2023-05-04T02:44:32.430Z,71.25817036313207
2023-05-04T02:47:27.938Z,72.01854328098308
2023-05-04T02:50:23.475Z,71.43758755615568
2023-05-04T02:53:19.101Z,71.90590413735728
2023-05-04T02:56:14.618Z,71.62624765930778
2023-05-04T02:59:10.176Z,71.29847567002523
2023-05-04T03:02:05.751Z,71.9193329097029
2023-05-04T03:05:01.326Z,72.1411898515138
2023-05-04T03:07:56.883Z,70.83621544354041
2023-05-04T03:10:52.407Z,71.0121434903054
2023-05-04T03:13:48.004Z,71.55886795215538
2023-05-04T03:16:43.531Z,71.9342200897204
2023-05-04T03:19:39.136Z,72.4469202821416
2023-05-04T03:22:34.717Z,72.21658531953452
2023-05-04T03:25:30.257Z,72.70407374769042
2023-05-04T03:28:25.840Z,73.0596083521924
2023-05-04T03:31:21.392Z,73.24367024434811
2023-05-04T03:34:20.927Z,73.57212083064202
2023-05-04T03:37:16.500Z,73.66816601396556
2023-05-04T03:40:13.057Z,73.51769573178942
2023-05-04T03:43:09.607Z,73.08647915603785
2023-05-04T03:46:06.261Z,72.49991795271568
2023-05-04T03:49:01.796Z,72.82953276133152
2023-05-04T03:51:57.275Z,72.040936810452
2023-05-04T03:54:52.812Z,71.84536648602493
2023-05-04T03:57:48.470Z,71.69237534404698
2023-05-04T04:00:45.004Z,71.42667083759278
2023-05-04T04:03:40.556Z,71.99781766786727
2023-05-04T04:06:37.112Z,71.83082073566915
2023-05-04T04:09:32.621Z,71.3332102890685
2023-05-04T04:12:28.232Z,71.02469730525532
2023-05-04T04:15:23.788Z,70.69816350561473
2023-05-04T04:18:19.304Z,70.96666988440347
2023-05-04T04:21:14.869Z,70.98816599607743
2023-05-04T04:24:10.475Z,69.97441160972365
2023-05-04T04:27:07.022Z,70.35762455977273
2023-05-04T04:30:03.748Z,70.56818279929608
2023-05-04T04:32:59.169Z,70.10402008312765
2023-05-04T04:35:54.713Z,69.64704604823463
2023-05-04T04:38:51.268Z,69.3982809395351
2023-05-04T04:41:46.814Z,69.74289634691961
2023-05-04T04:44:44.389Z,69.82919697873108
2023-05-04T04:47:41.985Z,69.51753488107485
2023-05-04T04:50:39.526Z,69.63720984609914
2023-05-04T04:53:36.087Z,68.85295237041466
2023-05-04T04:56:31.640Z,68.61974132752654
2023-05-04T04:59:28.217Z,68.9231692760889
2023-05-04T05:02:23.736Z,68.74899043039524
2023-05-04T05:05:19.278Z,68.86438861543522
2023-05-04T05:08:14.846Z,68.99279115075899
2023-05-04T05:11:11.432Z,68.58043135943335
2023-05-04T05:14:07.012Z,68.11621158380947
2023-05-04T05:17:03.554Z,67.94492229426706
2023-05-04T05:19:59.090Z,67.18820371260864
2023-05-04T05:22:54.654Z,67.33595353812383
2023-05-04T05:25:51.199Z,67.48854355391153
2023-05-04T05:28:48.794Z,67.47996324508566
2023-05-04T05:31:44.321Z,68.1388574146407
2023-05-04T05:34:39.919Z,67.1855260173262
2023-05-04T05:37:35.465Z,67.650686974266
2023-05-04T05:40:31.036Z,66.78362097669013
2023-05-04T05:43:26.595Z,67.41404109872309
2023-05-04T05:46:23.154Z,66.60004922832695
2023-05-04T05:49:18.704Z,65.07055820023501
2023-05-04T05:52:14.251Z,65.45668478121895
2023-05-04T05:55:13.821Z,66.04312259870765
2023-05-04T05:58:09.351Z,65.5439347838468
2023-05-04T06:01:05.062Z,65.22813466883514
2023-05-04T06:04:00.723Z,65.96103019798163
2023-05-04T06:06:56.061Z,65.80242178182145
2023-05-04T06:09:52.654Z,65.68391556067247
2023-05-04T06:12:49.253Z,66.53989023949558
2023-05-04T06:15:50.819Z,66.05934116510637
2023-05-04T06:18:46.280Z,67.11849328299802
2023-05-04T06:21:41.815Z,67.46633779156937
2023-05-04T06:24:37.359Z,66.91473269115298
2023-05-04T06:27:33.987Z,67.96486097188662
2023-05-04T06:30:29.606Z,66.51042540099594
2023-05-04T06:33:25.145Z,67.38036317106638
2023-05-04T06:36:21.663Z,66.87834330872485
2023-05-04T06:39:17.201Z,66.39487831220694
2023-05-04T06:42:12.780Z,66.78511112098508
2023-05-04T06:45:10.325Z,66.25740087181894
2023-05-04T06:48:08.973Z,65.93897658793881
2023-05-04T06:51:06.432Z,65.4950903732426
2023-05-04T06:54:03.025Z,65.80948779223638
2023-05-04T06:56:58.574Z,65.03292835314281
2023-05-04T06:59:54.105Z,65.3867671743787
2023-05-04T07:02:49.843Z,64.99827869926438
2023-05-04T07:05:48.255Z,64.92736612041298
2023-05-04T07:08:44.800Z,65.14923923850623
2023-05-04T07:11:42.337Z,65.40431402808538
2023-05-04T07:14:37.899Z,65.02203828005736
2023-05-04T07:17:33.531Z,63.667962960340255
2023-05-04T07:20:29.012Z,63.01902005901752
2023-05-04T07:23:27.634Z,64.11387033873118
2023-05-04T07:26:23.247Z,63.34026029663051
2023-05-04T07:29:18.718Z,63.360901804338404
2023-05-04T07:32:14.351Z,63.433509121968825
2023-05-04T07:35:09.845Z,63.47329655659676
2023-05-04T07:38:05.454Z,63.02135495050671
2023-05-04T07:41:00.934Z,61.750572412441976
2023-05-04T07:43:56.530Z,62.03773874254417
2023-05-04T07:46:52.048Z,62.33053174673464
2023-05-04T07:49:47.663Z,63.013670445380605
2023-05-04T07:52:46.201Z,63.38977188026342
2023-05-04T07:55:41.734Z,62.293234274283094
2023-05-04T07:58:39.326Z,63.18765225757016
2023-05-04T08:01:36.916Z,62.52742427764167
2023-05-04T08:04:32.454Z,62.823640652847864
2023-05-04T08:07:29.016Z,62.49095918664396
2023-05-04T08:10:28.553Z,62.181187628702
2023-05-04T08:13:24.097Z,62.75917168064923
2023-05-04T08:16:20.651Z,61.687905802628556
2023-05-04T08:19:16.207Z,62.077544627772234
2023-05-04T08:22:11.794Z,60.88034083235355
2023-05-04T08:25:09.339Z,60.188042286152566
2023-05-04T08:28:05.905Z,59.116605003317204
2023-05-04T08:31:03.485Z,60.605793065199116
2023-05-04T08:33:59.010Z,60.25426774025099
2023-05-04T08:36:54.657Z,59.621939441179556
2023-05-04T08:39:51.134Z,59.21738357574251
2023-05-04T08:42:52.699Z,58.476980626570814
2023-05-04T08:45:50.312Z,58.701909028290615
2023-05-04T08:48:46.858Z,57.778776084742496
2023-05-04T08:51:44.380Z,57.636540395680704
2023-05-04T08:54:42.923Z,59.492139657607744
2023-05-04T08:57:39.478Z,58.99910573668189
2023-05-04T09:00:38.046Z,58.15947831171456
2023-05-04T09:03:35.766Z,58.69968187163208
2023-05-04T09:06:32.164Z,56.44287205324559
2023-05-04T09:09:28.745Z,58.261358408425345
2023-05-04T09:12:26.269Z,58.8105070798142
2023-05-04T09:15:22.835Z,56.591235986992565
2023-05-04T09:18:23.396Z,56.63897862554424
2023-05-04T09:21:24.905Z,57.557057462751686
2023-05-04T09:24:26.509Z,56.05686421914655
2023-05-04T09:27:22.027Z,54.63723219643594
2023-05-04T09:30:22.576Z,55.87123973845849
2023-05-04T09:33:24.116Z,54.268622118797516
2023-05-04T09:39:25.224Z,54.887670536662206
2023-05-04T09:42:22.793Z,54.90576586236799
2023-05-04T09:45:20.355Z,52.80780244793073
2023-05-04T09:48:16.899Z,55.98204492926601
2023-05-04T09:51:23.458Z,55.29281070578629
2023-05-04T09:54:20.023Z,53.16269363038866
2023-05-04T09:57:18.546Z,52.673155432370585
2023-05-04T10:00:16.113Z,51.58441622523297
2023-05-04T10:03:14.698Z,51.3619799124085
2023-05-04T10:06:11.219Z,51.95408511622315
2023-05-04T10:09:08.777Z,52.31498488377455
2023-05-04T10:12:05.383Z,52.59581472580392
2023-05-04T10:15:06.004Z,51.68606935917169
2023-05-04T10:18:16.397Z,52.202692417510356
2023-05-04T10:21:25.926Z,52.01187955380167
2023-05-04T10:24:34.488Z,51.65812146684478
2023-05-04T10:27:43.975Z,52.27712873064528
2023-05-04T10:30:40.513Z,52.900498940757586
2023-05-04T10:33:40.074Z,51.636087886651296
2023-05-04T10:36:37.668Z,52.16503893615305
2023-05-04T10:39:34.223Z,51.97474097787693
2023-05-04T10:42:36.738Z,51.11473569246269
2023-05-04T10:45:37.441Z,51.78670295716732
2023-05-04T10:48:34.852Z,50.39047528204656
2023-05-04T10:51:42.402Z,51.81851643641803
2023-05-04T10:54:34.012Z,50.37118151504229
2023-05-04T10:57:35.511Z,50.46734169309697
2023-05-04T11:00:36.047Z,50.195732486487444
2023-05-04T11:03:38.716Z,51.04485104882352
2023-05-04T11:06:35.152Z,50.62442153023831
2023-05-04T11:09:35.718Z,49.46964980712018
2023-05-04T11:12:32.302Z,49.51229397440875
2023-05-04T11:18:38.361Z,48.34296312674895
2023-05-04T11:21:33.904Z,47.89215926767199
2023-05-04T11:24:35.562Z,47.47341741891922
2023-05-04T11:27:31.059Z,47.564840449535076
2023-05-04T11:30:33.579Z,47.811651036619025
2023-05-04T11:33:32.133Z,47.39339863531696
2023-05-04T11:36:36.648Z,48.192059605520264
2023-05-04T11:39:33.229Z,48.290101330838795
2023-05-04T11:42:29.766Z,49.5265898991634
2023-05-04T11:45:30.357Z,47.55822284387338
2023-05-04T11:48:28.880Z,44.60830700065116
2023-05-04T11:51:24.389Z,42.61404957518497
2023-05-04T11:54:24.117Z,42.784665978591875
2023-05-04T11:57:23.565Z,43.35985103941051
2023-05-04T12:00:21.130Z,45.54103138700956
2023-05-04T12:03:17.769Z,43.15324735579336
2023-05-04T12:06:18.214Z,43.24561434572922
2023-05-04T12:09:13.758Z,45.462553945608036
2023-05-04T12:12:12.329Z,44.10744032041599
2023-05-04T12:15:12.860Z,45.897504019810874
2023-05-04T12:18:21.380Z,43.924494616481454
2023-05-04T12:21:18.979Z,43.07299864452638
2023-05-04T12:24:14.539Z,41.17264321987815
2023-05-04T12:27:13.090Z,39.88156482604939
2023-05-04T12:30:09.642Z,39.921491608497426
2023-05-04T12:33:05.157Z,40.01839892897432
2023-05-04T12:36:01.763Z,41.38499800083404
2023-05-04T12:38:57.328Z,39.59056320621113
2023-05-04T12:41:52.879Z,38.870553790759125
2023-05-04T12:44:50.417Z,40.82418574993216
2023-05-04T12:47:47.068Z,35.61292308733338
2023-05-04T12:50:44.552Z,36.794176888950574
2023-05-04T12:53:41.126Z,37.58722332679687
2023-05-04T12:56:37.679Z,38.14295370000113
2023-05-04T12:59:34.247Z,38.67111107797908
2023-05-04T13:02:29.903Z,39.09960592526391
2023-05-04T13:05:26.356Z,39.63049679302266
2023-05-04T13:08:21.922Z,39.790339008798654
2023-05-04T13:11:19.452Z,41.311370911887714
2023-05-04T13:14:15.063Z,39.20810934760659
2023-05-04T13:17:11.586Z,38.79080189161183
2023-05-04T13:20:09.217Z,38.95561090765042
2023-05-04T13:23:04.716Z,38.33214206671709
2023-05-04T13:26:00.288Z,37.19077580080223
2023-05-04T13:28:56.838Z,36.76269977072009
2023-05-04T13:31:53.445Z,37.228259687937985
2023-05-04T13:34:49.965Z,33.601781844033894
2023-05-04T13:37:50.489Z,33.87641540354631
2023-05-04T13:40:48.057Z,34.44107693533726
2023-05-04T13:43:43.616Z,33.11485836040318
2023-05-04T13:46:39.225Z,32.547709653660796
2023-05-04T13:49:34.723Z,34.66273374996382
2023-05-04T13:52:32.407Z,34.115040166123926
2023-05-04T13:55:27.870Z,31.560878427925157
2023-05-04T13:58:25.475Z,29.95934891604665
2023-05-04T14:01:23.027Z,28.468936342833405
2023-05-04T14:04:18.550Z,31.078753727345113
2023-05-04T14:07:14.087Z,30.724856149744472
2023-05-04T14:10:10.670Z,31.752564248086205
2023-05-04T14:13:06.299Z,30.604848093991098
2023-05-04T14:16:02.792Z,32.22106781832224
2023-05-04T14:18:59.327Z,32.0352382381818
2023-05-04T14:21:54.911Z,28.741495458005225
2023-05-04T14:24:50.486Z,31.6386705093787
2023-05-04T14:27:46.000Z,28.38172962147491
2023-05-04T14:30:42.593Z,29.423758733815568
2023-05-04T14:33:41.152Z,31.070930443001586
2023-05-04T14:36:37.685Z,28.152789403872514
2023-05-04T14:39:34.228Z,27.726655364862786
2023-05-04T14:42:30.794Z,25.487277085935126
2023-05-04T14:45:27.365Z,26.0107428214355
2023-05-04T14:48:25.928Z,25.577691834138907
2023-05-04T14:51:22.477Z,26.177291620816913
2023-05-04T14:54:19.072Z,26.86724674779342
2023-05-04T14:57:14.613Z,26.74042464408656
2023-05-04T15:00:11.578Z,27.362294393351192
2023-05-04T15:03:08.777Z,26.682166073070224
2023-05-04T15:06:06.285Z,24.328684615374645
2023-05-04T15:09:02.804Z,25.27361006332806
2023-05-04T15:11:58.425Z,24.95962759722614
2023-05-04T15:14:53.997Z,25.45107437190777
2023-05-04T15:17:50.527Z,24.59947798253937
2023-05-04T15:20:47.062Z,23.954910619821963
2023-05-04T15:23:42.627Z,22.738393274860922
2023-05-04T15:26:38.199Z,23.86372664956313
2023-05-04T15:29:33.770Z,23.230530357461646
2023-05-04T15:32:29.409Z,22.53565816460686
2023-05-04T15:35:24.910Z,22.093246886693564
2023-05-04T15:38:20.459Z,20.80380596995756
2023-05-04T15:41:16.013Z,22.65395700065941
2023-05-04T15:44:11.591Z,22.18244566751593
2023-05-04T15:47:09.271Z,23.580335125291096
2023-05-04T15:50:06.852Z,23.686298912826192
2023-05-04T15:53:03.243Z,24.6029944591695
2023-05-04T15:55:58.812Z,25.598937447603042
2023-05-04T15:58:54.353Z,29.9738022280079
2023-05-04T16:01:49.944Z,31.63932430691002
2023-05-04T16:04:46.585Z,31.47110237189156
2023-05-04T16:07:43.020Z,33.50682954355966
2023-05-04T16:10:39.567Z,35.047960811586975
2023-05-04T16:13:37.164Z,34.79041291087559
2023-05-04T16:16:32.758Z,34.9064087434967
2023-05-04T16:19:29.329Z,36.182045536195915
2023-05-04T16:22:25.851Z,37.047682022531916
2023-05-04T16:25:26.352Z,37.17349950830287
2023-05-04T16:28:21.939Z,38.11192160458615
2023-05-04T16:31:20.555Z,38.60344412300687
2023-05-04T16:34:19.046Z,39.08286548228262
2023-05-04T16:37:18.953Z,38.076566920507446
2023-05-04T16:40:15.275Z,38.22582801970797
2023-05-04T16:43:10.765Z,40.59371962822652
2023-05-04T16:46:06.316Z,42.69254714415324
2023-05-04T16:49:01.849Z,43.169246318912954
2023-05-04T16:51:57.388Z,45.041807337949955
2023-05-04T16:54:53.969Z,46.05192990411861
2023-05-04T16:57:50.544Z,46.841426891873695
2023-05-04T17:00:47.093Z,48.095130232420054
2023-05-04T17:03:42.743Z,48.74890776513653
2023-05-04T17:06:38.270Z,48.496305369528514
2023-05-04T17:09:34.779Z,49.42874830495121
2023-05-04T17:12:31.365Z,52.78533963300601
2023-05-04T17:15:26.874Z,52.847036002714916
2023-05-04T17:18:22.445Z,51.977291820614624
2023-05-04T17:21:18.038Z,53.51936268853104
2023-05-04T17:24:14.557Z,56.105552183140745
2023-05-04T17:27:11.147Z,55.80270853479191
2023-05-04T17:30:08.016Z,57.24970008362659
2023-05-04T17:33:03.316Z,57.893102029872715
2023-05-04T17:35:58.816Z,58.64490488153346
2023-05-04T17:38:54.403Z,58.34145295779831
2023-05-04T17:41:50.945Z,58.77044079445591
2023-05-04T17:44:47.474Z,58.81917559820859
2023-05-04T17:47:45.113Z,59.71180209065536
2023-05-04T17:50:41.683Z,62.79666496696569
2023-05-04T17:53:38.196Z,63.70158404431052
2023-05-04T17:56:33.731Z,64.4558615304461
2023-05-04T17:59:29.307Z,64.27233396521929
2023-05-04T18:02:24.886Z,63.63348625326238
2023-05-04T18:05:20.435Z,64.28528693177118
2023-05-04T18:08:16.004Z,67.05716468609762
2023-05-04T18:11:12.582Z,70.1642078742067
2023-05-04T18:14:08.117Z,72.13984935946999
2023-05-04T18:17:07.637Z,74.21553040955897
2023-05-04T18:20:08.723Z,74.36486500703897
2023-05-04T18:23:04.771Z,74.32994514267773
2023-05-04T18:26:00.332Z,73.87368850522263
2023-05-04T18:29:04.223Z,72.17891599327466
2023-05-04T18:31:59.448Z,70.71446270032888
2023-05-04T18:34:58.088Z,69.9572839202998
2023-05-04T18:37:53.776Z,69.37345329180609
2023-05-04T18:40:53.176Z,69.64117734750619
2023-05-04T18:43:49.758Z,68.92028283480691
2023-05-04T18:46:46.306Z,68.3226924433676
2023-05-04T18:49:43.866Z,68.48558454171592
2023-05-04T18:52:40.695Z,67.39408970886433
2023-05-04T18:55:37.978Z,66.35026747169746
2023-05-04T18:58:36.533Z,67.71407474725146
2023-05-04T19:01:33.174Z,68.86597562971868
2023-05-04T19:04:29.630Z,69.44198667431556
2023-05-04T19:07:26.219Z,70.57330048844791
2023-05-04T19:10:22.787Z,71.1118027595397
2023-05-04T19:13:20.319Z,70.68598441823144
2023-05-04T19:16:16.055Z,72.07781297768099
2023-05-04T19:19:11.383Z,72.91830879822957
2023-05-04T19:22:07.000Z,73.54935209991416
2023-05-04T19:25:03.550Z,74.69264015715822
2023-05-04T19:28:09.130Z,75.08133971734858
2023-05-04T19:31:09.690Z,75.10644465538655
2023-05-04T19:34:10.214Z,74.81316060431953
2023-05-04T19:37:10.765Z,74.59173488215738
2023-05-04T19:40:12.496Z,73.44839449220079
2023-05-04T19:43:18.839Z,74.2557841815239
2023-05-04T19:46:20.406Z,74.94813744183614
2023-05-04T19:49:21.924Z,75.68164629684841
2023-05-04T19:52:23.475Z,75.96492058941622
2023-05-04T19:55:24.989Z,76.21357340214729
2023-05-04T19:58:27.572Z,75.5395451261588
2023-05-04T20:01:28.236Z,75.45200326917859
2023-05-04T20:04:28.653Z,74.96040307942098
2023-05-04T20:07:29.238Z,75.35214919584513
2023-05-04T20:10:29.770Z,74.37820571561373
2023-05-04T20:13:30.328Z,74.09753867958945
2023-05-04T20:16:31.975Z,73.93833323086879
2023-05-04T20:22:43.041Z,74.11313327743227
2023-05-04T20:25:44.467Z,74.51862900087514
2023-05-04T20:28:46.032Z,74.8215067937169
2023-05-04T20:31:46.614Z,75.4922094383017
2023-05-04T20:34:48.044Z,75.92391300494155
2023-05-04T20:37:49.568Z,75.98225989977628
2023-05-04T20:40:52.092Z,76.08899520141182
2023-05-04T20:43:53.651Z,75.57288407435989
2023-05-04T20:46:54.262Z,75.01198220075966
2023-05-04T20:49:54.760Z,74.68413969081219
2023-05-04T20:52:56.292Z,74.82276913430427
2023-05-04T20:55:56.871Z,75.70706307503443
2023-05-04T20:58:57.375Z,75.80830472167285
2023-05-04T21:01:57.970Z,75.53524024057111
2023-05-04T21:04:58.493Z,75.95682271635914
2023-05-04T21:08:01.082Z,75.95411070570337
2023-05-04T21:11:03.611Z,76.3597058169658
2023-05-04T21:14:04.175Z,77.15475933972053
2023-05-04T21:17:04.680Z,79.79334259980912
2023-05-04T21:20:06.538Z,81.41298161020434
2023-05-04T21:23:06.789Z,82.28739237820493
2023-05-04T21:26:07.319Z,81.5579463585148
2023-05-04T21:29:10.891Z,80.83267017249234
2023-05-04T21:32:13.421Z,79.86623601323024
2023-05-04T21:35:15.972Z,79.50821754548399
2023-05-04T21:38:16.511Z,79.76673886575178
2023-05-04T21:41:17.069Z,80.60632976851699
2023-05-04T21:44:17.614Z,81.00287862669691
2023-05-04T21:47:18.159Z,80.9814136171009
2023-05-04T21:50:18.738Z,81.29469196150512
2023-05-04T21:53:19.260Z,81.41808864453597
2023-05-04T21:56:21.796Z,81.65752751599172
2023-05-04T21:59:22.380Z,81.45061474532514
2023-05-04T22:02:22.905Z,81.42209912314145
2023-05-04T22:05:24.452Z,81.01575905883311
2023-05-04T22:08:25.018Z,81.21672684903623
2023-05-04T22:11:32.493Z,80.89899216729495
2023-05-04T22:14:33.072Z,81.32932442281218
2023-05-04T22:17:33.651Z,82.09223281939929
2023-05-04T22:20:35.142Z,82.34451890066423
2023-05-04T22:23:36.783Z,82.08647991535358
2023-05-04T22:26:37.254Z,82.59276001384912
2023-05-04T22:29:37.814Z,84.13516755779949
2023-05-04T22:32:39.380Z,84.54078554156605
2023-05-04T22:35:40.892Z,84.7576618765034
2023-05-04T22:38:42.447Z,84.35266009994652
2023-05-04T22:41:45.010Z,83.55836069074368
2023-05-04T22:44:45.556Z,83.53293728647351
2023-05-04T22:47:46.132Z,82.77950954889101
2023-05-04T22:50:48.665Z,83.22639375391849
2023-05-04T22:53:46.195Z,83.48245515768227
2023-05-04T22:56:41.773Z,82.66983445816038
2023-05-04T22:59:38.326Z,83.05744288290916
2023-05-04T23:02:34.993Z,82.70246603022136
2023-05-04T23:05:33.429Z,83.26980054145007
2023-05-04T23:08:29.001Z,83.45326746733453
2023-05-04T23:11:24.549Z,83.98931235562884
2023-05-04T23:14:22.089Z,82.5954828891546
2023-05-04T23:17:17.695Z,82.14452305316335
2023-05-04T23:20:14.245Z,81.15744075841863
2023-05-04T23:23:10.791Z,79.72455935690542
2023-05-04T23:26:07.352Z,79.3803341734905
2023-05-04T23:29:02.914Z,80.92017428444959
2023-05-04T23:32:01.630Z,80.93472605821222
2023-05-04T23:34:57.020Z,80.55205459118449
2023-05-04T23:37:52.756Z,79.57977636887234
2023-05-04T23:40:50.154Z,79.02257635640973
2023-05-04T23:43:46.735Z,78.1922447653435
2023-05-04T23:46:42.229Z,78.48413404114511
2023-05-04T23:49:37.814Z,79.51764864979059
2023-05-04T23:52:34.393Z,80.98495062653795
2023-05-04T23:55:29.912Z,80.28196324554877
2023-05-04T23:58:26.535Z,79.54619373334192
